Time;durP1;ratioP1;P1;durP2;ratioP2;P2;SDS_P1;SDS_P2;PMS_P1;PMS_P2;Temp;Humidity;BMP_temperature;BMP_pressure;BME280_temperature;BME280_humidity;BME280_pressure;Samples;Min_cycle;Max_cycle;Signal;HPM_P1;HPM_P2
2022/09/13 00:01:42;;;;;;;0.43;0.38;;;;;;;;;;5135133;27;20083;-44
2022/09/13 00:04:07;;;;;;;2.40;1.02;;;;;;;;;;5140334;27;20431;-42
2022/09/13 00:06:32;;;;;;;2.45;0.65;;;;;;;;;;5135554;27;20526;-45
2022/09/13 00:09:00;;;;;;;5.07;0.75;;;;;;;;;;5137307;27;20083;-47
2022/09/13 00:11:26;;;;;;;3.97;0.75;;;;;;;;;;5131620;27;20019;-42
2022/09/13 00:13:52;;;;;;;4.03;1.92;;;;;;;;;;5137651;27;20027;-46
2022/09/13 00:16:19;;;;;;;1.25;0.40;;;;;;;;;;5139248;27;20307;-43
2022/09/13 00:18:44;;;;;;;11.70;1.52;;;;;;;;;;5135507;27;20501;-45
2022/09/13 00:21:12;;;;;;;1.25;0.65;;;;;;;;;;5138207;27;20015;-45
2022/09/13 00:23:37;;;;;;;1.27;1.10;;;;;;;;;;5135913;27;20274;-42
2022/09/13 00:26:07;;;;;;;2.35;1.05;;;;;;;;;;5137340;27;20465;-41
2022/09/13 00:28:33;;;;;;;3.70;0.90;;;;;;;;;;5138534;27;20054;-45
2022/09/13 00:30:59;;;;;;;12.75;1.27;;;;;;;;;;5136282;27;20378;-43
2022/09/13 00:33:24;;;;;;;1.55;1.20;;;;;;;;;;5135656;27;20027;-43
2022/09/13 00:35:49;;;;;;;0.90;0.63;;;;;;;;;;5134249;27;20470;-42
2022/09/13 00:38:15;;;;;;;3.55;0.80;;;;;;;;;;5135577;27;20011;-46
2022/09/13 00:40:40;;;;;;;1.15;0.52;;;;;;;;;;5131120;27;20501;-43
2022/09/13 00:43:12;;;;;;;3.63;1.17;;;;;;;;;;5140460;27;20010;-42
2022/09/13 00:45:37;;;;;;;8.20;1.63;;;;;;;;;;5136936;27;20742;-41
2022/09/13 00:48:05;;;;;;;1.85;1.05;;;;;;;;;;5134904;27;20015;-42
2022/09/13 00:50:33;;;;;;;2.67;0.95;;;;;;;;;;5138356;27;20040;-41
2022/09/13 00:53:08;;;;;;;4.90;0.80;;;;;;;;;;5136260;27;20063;-43
2022/09/13 00:55:42;;;;;;;5.93;0.88;;;;;;;;;;5137636;27;20055;-43
2022/09/13 00:58:10;;;;;;;2.17;1.48;;;;;;;;;;5138034;27;20020;-42
2022/09/13 01:00:37;;;;;;;13.75;1.08;;;;;;;;;;5134823;27;20016;-43
2022/09/13 01:03:05;;;;;;;1.75;1.08;;;;;;;;;;5132931;27;20075;-45
2022/09/13 01:05:33;;;;;;;12.38;0.75;;;;;;;;;;5136269;27;20057;-43
2022/09/13 01:07:59;;;;;;;3.08;1.48;;;;;;;;;;5137511;27;20151;-43
2022/09/13 01:10:26;;;;;;;7.55;0.88;;;;;;;;;;5130899;27;20037;-42
2022/09/13 01:12:54;;;;;;;4.53;0.55;;;;;;;;;;5134223;27;20018;-43
2022/09/13 01:15:20;;;;;;;0.52;0.40;;;;;;;;;;5136142;27;20015;-43
2022/09/13 01:17:45;;;;;;;1.42;0.47;;;;;;;;;;5135977;27;20016;-42
2022/09/13 01:20:11;;;;;;;2.13;1.20;;;;;;;;;;5134273;27;20042;-43
2022/09/13 01:23:05;;;;;;;6.47;1.63;;;;;;;;;;5136541;27;20387;-43
2022/09/13 01:25:49;;;;;;;0.93;0.65;;;;;;;;;;5116372;27;20114;-44
2022/09/13 01:28:38;;;;;;;2.92;1.48;;;;;;;;;;5134390;27;20034;-42
2022/09/13 01:31:27;;;;;;;4.18;2.15;;;;;;;;;;5124066;27;20027;-43
2022/09/13 01:33:58;;;;;;;2.35;1.33;;;;;;;;;;5083892;27;20129;-44
2022/09/13 01:36:42;;;;;;;2.00;1.40;;;;;;;;;;5129177;27;20020;-44
2022/09/13 01:39:12;;;;;;;2.55;1.17;;;;;;;;;;5133026;27;20027;-44
2022/09/13 01:41:37;;;;;;;2.50;1.27;;;;;;;;;;5130249;27;20015;-44
2022/09/13 01:44:05;;;;;;;3.65;0.90;;;;;;;;;;5131077;27;20501;-44
2022/09/13 01:46:52;;;;;;;1.02;0.82;;;;;;;;;;5128120;27;20391;-44
2022/09/13 01:49:33;;;;;;;3.95;1.98;;;;;;;;;;5129798;27;20462;-46
2022/09/13 01:52:00;;;;;;;4.60;1.58;;;;;;;;;;5132950;27;20027;-47
2022/09/13 01:54:30;;;;;;;1.08;0.52;;;;;;;;;;5135573;27;20569;-43
2022/09/13 01:57:05;;;;;;;3.30;1.55;;;;;;;;;;5131643;27;20117;-43
2022/09/13 01:59:45;;;;;;;11.45;1.63;;;;;;;;;;5133066;27;20023;-43
2022/09/13 02:02:15;;;;;;;3.10;1.30;;;;;;;;;;5132222;27;20023;-44
2022/09/13 02:04:43;;;;;;;2.17;0.90;;;;;;;;;;5128426;27;20042;-42
2022/09/13 02:07:15;;;;;;;4.25;0.80;;;;;;;;;;5129475;27;20042;-42
2022/09/13 02:09:43;;;;;;;3.90;0.75;;;;;;;;;;5134548;27;20038;-42
2022/09/13 02:12:17;;;;;;;0.40;0.30;;;;;;;;;;5134571;27;20676;-46
2022/09/13 02:14:44;;;;;;;1.48;1.10;;;;;;;;;;5137410;27;20067;-45
2022/09/13 02:17:12;;;;;;;1.95;1.08;;;;;;;;;;5133274;27;20010;-42
2022/09/13 02:19:46;;;;;;;3.65;1.67;;;;;;;;;;5134603;27;20099;-42
2022/09/13 02:22:12;;;;;;;1.75;1.20;;;;;;;;;;5135306;27;20386;-43
2022/09/13 02:24:40;;;;;;;2.90;1.40;;;;;;;;;;5132719;27;20023;-42
2022/09/13 02:27:11;;;;;;;6.25;0.98;;;;;;;;;;5139914;27;20401;-43
2022/09/13 02:29:38;;;;;;;2.30;0.45;;;;;;;;;;5125152;27;20156;-42
2022/09/13 02:32:20;;;;;;;2.17;0.95;;;;;;;;;;5130308;27;20042;-42
2022/09/13 02:35:03;;;;;;;1.33;0.88;;;;;;;;;;5128849;27;20046;-43
2022/09/13 02:37:29;;;;;;;3.08;0.88;;;;;;;;;;5135247;27;20018;-41
2022/09/13 02:39:58;;;;;;;5.25;0.63;;;;;;;;;;5132237;27;20129;-43
2022/09/13 02:42:29;;;;;;;7.40;1.25;;;;;;;;;;5128843;27;20019;-43
2022/09/13 02:44:58;;;;;;;4.40;1.20;;;;;;;;;;5130624;27;20045;-43
2022/09/13 02:47:39;;;;;;;5.00;1.75;;;;;;;;;;5133778;27;20414;-42
2022/09/13 02:50:04;;;;;;;;;;;;;;;;;;5134528;27;20011;-42
2022/09/13 02:52:48;;;;;;;1.73;1.08;;;;;;;;;;5136068;27;20020;-42
2022/09/13 02:55:14;;;;;;;11.25;1.73;;;;;;;;;;5133905;27;20047;-42
2022/09/13 02:57:45;;;;;;;0.73;0.57;;;;;;;;;;5135186;27;20485;-45
2022/09/13 03:00:10;;;;;;;4.05;0.95;;;;;;;;;;5133710;27;20023;-44
2022/09/13 03:02:37;;;;;;;0.65;0.50;;;;;;;;;;5134385;27;20029;-46
2022/09/13 03:05:02;;;;;;;2.75;1.35;;;;;;;;;;5133925;27;20027;-44
2022/09/13 03:07:28;;;;;;;5.28;1.48;;;;;;;;;;5133428;27;20478;-42
2022/09/13 03:09:55;;;;;;;1.85;0.98;;;;;;;;;;5134585;27;20377;-43
2022/09/13 03:12:50;;;;;;;3.30;1.30;;;;;;;;;;5132718;27;20424;-42
2022/09/13 03:15:24;;;;;;;4.47;1.65;;;;;;;;;;5041916;27;20026;-43
2022/09/13 03:17:53;;;;;;;2.70;0.98;;;;;;;;;;5131288;27;20023;-44
2022/09/13 03:20:18;;;;;;;1.45;1.00;;;;;;;;;;5132120;27;20105;-42
2022/09/13 03:22:43;;;;;;;9.75;1.45;;;;;;;;;;5133059;27;20488;-44
2022/09/13 03:25:08;;;;;;;6.07;1.63;;;;;;;;;;5131642;27;20491;-45
2022/09/13 03:27:38;;;;;;;8.40;2.40;;;;;;;;;;5130911;27;20034;-42
2022/09/13 03:30:03;;;;;;;1.30;1.02;;;;;;;;;;5124411;27;20034;-44
2022/09/13 03:32:31;;;;;;;3.03;1.00;;;;;;;;;;5128427;27;20031;-42
2022/09/13 03:35:05;;;;;;;2.88;1.38;;;;;;;;;;5131718;27;20028;-44
2022/09/13 03:37:42;;;;;;;2.05;0.80;;;;;;;;;;5137545;27;20026;-43
2022/09/13 03:40:07;;;;;;;1.58;0.90;;;;;;;;;;5128686;27;20098;-42
2022/09/13 03:42:49;;;;;;;2.33;1.17;;;;;;;;;;5134999;27;20102;-42
2022/09/13 03:45:16;;;;;;;4.57;1.45;;;;;;;;;;5128241;27;20114;-43
2022/09/13 03:47:43;;;;;;;2.83;1.20;;;;;;;;;;5129697;27;20034;-41
2022/09/13 03:50:09;;;;;;;1.15;1.02;;;;;;;;;;5136764;27;20336;-43
2022/09/13 03:52:34;;;;;;;2.67;0.80;;;;;;;;;;5127286;27;20516;-42
2022/09/13 03:55:01;;;;;;;0.93;0.70;;;;;;;;;;5132981;27;20033;-45
2022/09/13 03:57:26;;;;;;;1.90;0.50;;;;;;;;;;5129519;27;20110;-42
2022/09/13 03:59:55;;;;;;;2.08;0.80;;;;;;;;;;5131450;27;20102;-48
2022/09/13 04:02:22;;;;;;;3.30;1.38;;;;;;;;;;5134502;27;20019;-47
2022/09/13 04:04:47;;;;;;;2.65;1.45;;;;;;;;;;5138479;27;20043;-42
2022/09/13 04:07:14;;;;;;;4.32;1.27;;;;;;;;;;5133228;27;20699;-43
2022/09/13 04:09:40;;;;;;;3.20;0.80;;;;;;;;;;5133859;27;20054;-43
2022/09/13 04:12:05;;;;;;;1.85;1.27;;;;;;;;;;5131080;27;20091;-45
2022/09/13 04:14:31;;;;;;;1.25;0.85;;;;;;;;;;5137715;27;20019;-44
2022/09/13 04:16:56;;;;;;;1.42;0.65;;;;;;;;;;5135982;27;20019;-43
2022/09/13 04:19:22;;;;;;;0.40;0.40;;;;;;;;;;5139441;27;20023;-42
2022/09/13 04:21:48;;;;;;;2.22;1.15;;;;;;;;;;5131161;27;20023;-43
2022/09/13 04:24:14;;;;;;;3.60;1.48;;;;;;;;;;5133517;27;20059;-42
2022/09/13 04:26:39;;;;;;;0.82;0.47;;;;;;;;;;5141153;27;20055;-44
2022/09/13 04:29:05;;;;;;;2.08;0.70;;;;;;;;;;5132656;27;20067;-42
2022/09/13 04:31:30;;;;;;;0.50;0.22;;;;;;;;;;5134878;27;20034;-43
2022/09/13 04:33:55;;;;;;;6.50;1.50;;;;;;;;;;5134960;27;20038;-42
2022/09/13 04:36:21;;;;;;;3.22;0.85;;;;;;;;;;5131663;27;20018;-44
2022/09/13 04:38:47;;;;;;;2.78;1.02;;;;;;;;;;5133512;27;20010;-45
2022/09/13 04:41:12;;;;;;;20.58;12.20;;;;;;;;;;5135564;27;20060;-43
2022/09/13 04:43:37;;;;;;;5.68;1.75;;;;;;;;;;5132587;27;20223;-43
2022/09/13 04:46:03;;;;;;;4.97;1.55;;;;;;;;;;5136639;27;20109;-45
2022/09/13 04:48:28;;;;;;;1.73;1.02;;;;;;;;;;5132615;27;20037;-45
2022/09/13 04:50:59;;;;;;;2.53;1.02;;;;;;;;;;5135396;27;21291;-45
2022/09/13 04:53:25;;;;;;;1.08;0.63;;;;;;;;;;5129831;27;20090;-45
2022/09/13 04:55:50;;;;;;;1.02;0.68;;;;;;;;;;5131117;27;20572;-45
2022/09/13 04:58:15;;;;;;;1.65;1.00;;;;;;;;;;5132811;27;20566;-43
2022/09/13 05:00:42;;;;;;;8.75;0.95;;;;;;;;;;5136418;27;20493;-44
2022/09/13 05:03:07;;;;;;;4.30;2.28;;;;;;;;;;5134600;27;20029;-44
2022/09/13 05:05:32;;;;;;;2.38;1.05;;;;;;;;;;5136249;27;20470;-42
2022/09/13 05:07:58;;;;;;;2.92;0.88;;;;;;;;;;5133937;27;20023;-43
2022/09/13 05:10:23;;;;;;;0.57;0.57;;;;;;;;;;5132148;27;20034;-42
2022/09/13 05:12:48;;;;;;;2.50;1.10;;;;;;;;;;5133764;27;20019;-44
2022/09/13 05:15:14;;;;;;;1.90;0.98;;;;;;;;;;5131813;27;20019;-45
2022/09/13 05:17:39;;;;;;;1.90;0.63;;;;;;;;;;5133553;27;20038;-44
2022/09/13 05:20:05;;;;;;;2.35;1.58;;;;;;;;;;5128071;27;20016;-44
2022/09/13 05:22:30;;;;;;;1.35;0.80;;;;;;;;;;5133966;27;20485;-43
2022/09/13 05:24:55;;;;;;;2.40;1.60;;;;;;;;;;5134932;27;20043;-43
2022/09/13 05:27:21;;;;;;;6.75;1.55;;;;;;;;;;5135411;27;20393;-44
2022/09/13 05:29:46;;;;;;;2.40;1.58;;;;;;;;;;5131321;27;20225;-43
2022/09/13 05:32:12;;;;;;;3.45;1.13;;;;;;;;;;5129638;27;20027;-43
2022/09/13 05:34:37;;;;;;;3.13;1.17;;;;;;;;;;5128346;27;20509;-44
2022/09/13 05:37:02;;;;;;;9.20;2.65;;;;;;;;;;5129865;27;20513;-45
2022/09/13 05:39:28;;;;;;;3.28;1.23;;;;;;;;;;5132082;27;20019;-44
2022/09/13 05:41:53;;;;;;;2.83;0.80;;;;;;;;;;5122447;27;20382;-43
2022/09/13 05:44:19;;;;;;;1.52;0.60;;;;;;;;;;5136673;27;20058;-47
2022/09/13 05:46:45;;;;;;;8.15;1.98;;;;;;;;;;5135642;27;20418;-44
2022/09/13 05:49:12;;;;;;;1.67;0.80;;;;;;;;;;5132909;27;20072;-46
2022/09/13 05:51:37;;;;;;;3.85;1.90;;;;;;;;;;5128224;27;20046;-46
2022/09/13 05:54:02;;;;;;;5.35;3.13;;;;;;;;;;5132394;27;20445;-46
2022/09/13 05:56:28;;;;;;;6.32;3.45;;;;;;;;;;5132858;27;20051;-43
2022/09/13 05:58:54;;;;;;;8.93;2.20;;;;;;;;;;5132993;27;20065;-48
2022/09/13 06:01:26;;;;;;;1.90;0.90;;;;;;;;;;5130811;27;20035;-46
2022/09/13 06:03:53;;;;;;;9.35;2.42;;;;;;;;;;5137592;27;20048;-46
2022/09/13 06:06:19;;;;;;;4.95;2.22;;;;;;;;;;5131073;27;20448;-45
2022/09/13 06:08:44;;;;;;;8.05;3.42;;;;;;;;;;5133102;27;20019;-44
2022/09/13 06:11:11;;;;;;;12.15;4.05;;;;;;;;;;5130092;27;20544;-44
2022/09/13 06:13:36;;;;;;;3.30;2.00;;;;;;;;;;5128716;27;20019;-44
2022/09/13 06:16:03;;;;;;;4.18;1.50;;;;;;;;;;5127492;27;20143;-45
2022/09/13 06:18:29;;;;;;;7.32;2.67;;;;;;;;;;5128959;27;20019;-44
2022/09/13 06:21:01;;;;;;;16.95;3.55;;;;;;;;;;5132971;27;20019;-43
2022/09/13 06:23:27;;;;;;;7.82;1.90;;;;;;;;;;5130731;27;20031;-43
2022/09/13 06:26:02;;;;;;;10.10;2.78;;;;;;;;;;5124846;27;20023;-46
2022/09/13 06:28:28;;;;;;;12.00;4.05;;;;;;;;;;5131929;27;20022;-43
2022/09/13 06:30:58;;;;;;;9.98;4.13;;;;;;;;;;5133486;27;20101;-48
2022/09/13 06:33:23;;;;;;;;;;;;;;;;;;5129037;27;20051;-46
2022/09/13 06:35:49;;;;;;;5.80;1.98;;;;;;;;;;5132498;27;19933;-46
2022/09/13 06:38:14;;;;;;;15.32;2.95;;;;;;;;;;5132253;27;20043;-47
2022/09/13 06:40:39;;;;;;;8.63;2.95;;;;;;;;;;5117464;27;20050;-52
2022/09/13 06:43:05;;;;;;;7.72;1.55;;;;;;;;;;5131753;27;20023;-48
2022/09/13 06:45:30;;;;;;;6.18;2.40;;;;;;;;;;5132991;27;20521;-47
2022/09/13 06:47:55;;;;;;;8.27;2.67;;;;;;;;;;5130013;27;20023;-47
2022/09/13 06:50:21;;;;;;;6.80;2.05;;;;;;;;;;5128198;27;20859;-44
2022/09/13 06:52:46;;;;;;;6.55;1.85;;;;;;;;;;5127208;27;20022;-44
2022/09/13 06:55:11;;;;;;;5.32;1.48;;;;;;;;;;5130318;27;20060;-45
2022/09/13 06:57:36;;;;;;;11.93;2.50;;;;;;;;;;5132168;27;20038;-46
2022/09/13 07:00:02;;;;;;;25.92;14.13;;;;;;;;;;5133561;27;20640;-44
2022/09/13 07:02:27;;;;;;;7.65;4.47;;;;;;;;;;5132444;27;20123;-44
2022/09/13 07:04:52;;;;;;;8.15;5.03;;;;;;;;;;5126857;27;20474;-44
2022/09/13 07:07:18;;;;;;;19.92;9.73;;;;;;;;;;5130422;27;20530;-47
2022/09/13 07:09:43;;;;;;;12.05;8.95;;;;;;;;;;5132579;27;20030;-46
2022/09/13 07:12:09;;;;;;;17.15;6.18;;;;;;;;;;5130243;27;20478;-48
2022/09/13 07:14:34;;;;;;;10.65;8.27;;;;;;;;;;5126566;27;20041;-50
2022/09/13 07:16:59;;;;;;;13.43;8.80;;;;;;;;;;5127090;27;20012;-45
2022/09/13 07:19:25;;;;;;;22.02;8.10;;;;;;;;;;5128001;27;20497;-43
2022/09/13 07:21:51;;;;;;;7.88;5.25;;;;;;;;;;5132092;27;20023;-45
2022/09/13 07:24:17;;;;;;;10.48;5.95;;;;;;;;;;5131969;27;20044;-46
2022/09/13 07:26:42;;;;;;;7.45;5.03;;;;;;;;;;5131742;27;20485;-43
2022/09/13 07:29:09;;;;;;;6.72;5.80;;;;;;;;;;5127710;27;20034;-52
2022/09/13 07:31:36;;;;;;;9.10;6.03;;;;;;;;;;5127076;27;20027;-44
2022/09/13 07:34:03;;;;;;;7.60;4.72;;;;;;;;;;5132399;27;20014;-52
